Latest Weather Observations for Cairns

IDQ60801

Issued at 5:32 pm EST Sunday 29 May 2016 (issued every 30 minutes, with the page automatically refreshed every 10 minutes)

About weather observations | Map of weather stations | Latest weather observations for QLD | Other Formats
Station Details ID: 031011 Name: CAIRNS AERO Lat: -16.87 Lon: 145.75 Height: 2.22 m
Data from the previous 72 hours. | See also: Recent months at Cairns
Date/Time
EST
Temp
°C
App
Temp
°C
Dew
Point
Rel
Hum
%
Delta-T
°C
Wind Press
QNH
hPa
Press
MSL
hPa
Rain
since 9 am
mm
Dir
 
Spd
km/h
Gust
km/h
Spd
kts
Gust
kts
29/05:00pm 27.5 28.9 21.8 71 3.8 ESE 17 20 9 11 1014.8 1014.8 0.0
29/04:30pm 28.2 29.4 22.2 70 4.0 E 19 26 10 14 1014.7 1014.7 0.0
29/04:00pm 29.1 30.1 21.8 64 4.9 E 19 26 10 14 1014.4 1014.4 0.0
29/03:30pm 29.3 30.7 21.8 64 5.0 ENE 17 24 9 13 1014.2 1014.2 0.0
29/03:00pm 29.8 31.3 22.0 63 5.3 NE 17 22 9 12 1014.2 1014.2 0.0
29/02:30pm 29.9 31.6 22.3 63 5.2 E 17 22 9 12 1014.2 1014.2 0.0
29/02:00pm 29.8 31.4 22.8 66 4.8 ENE 19 26 10 14 1014.3 1014.3 0.0
29/01:30pm 29.6 32.0 22.3 65 4.9 NE 13 20 7 11 1014.6 1014.6 0.0
29/01:00pm 28.8 31.2 21.6 65 4.8 SE 11 15 6 8 1015.0 1015.0 0.0
29/12:30pm 28.7 31.3 22.0 67 4.5 E 11 15 6 8 1015.3 1015.3 0.0
29/12:00pm 28.7 31.1 22.2 68 4.4 ESE 13 17 7 9 1015.5 1015.5 0.0
29/11:30am 29.1 31.8 22.8 69 4.3 E 13 19 7 10 1016.0 1016.0 0.0
29/11:00am 28.3 31.4 22.8 72 3.7 SE 11 17 6 9 1016.1 1016.1 0.0
29/10:30am 27.9 30.8 22.4 72 3.7 SSE 11 15 6 8 1016.3 1016.3 0.0
29/10:00am 26.9 29.1 21.9 74 3.3 SE 13 17 7 9 1016.5 1016.5 0.0
29/09:30am 26.5 28.8 22.1 77 3.0 SE 13 15 7 8 1016.8 1016.8 0.0
29/09:00am 25.9 27.4 22.0 79 2.6 SE 17 20 9 11 1016.7 1016.7 0.0
29/08:30am 26.5 30.3 22.8 80 2.5 SSE 7 11 4 6 1016.4 1016.4 0.0
29/08:00am 24.8 27.8 21.9 84 1.9 SE 9 13 5 7 1016.2 1016.2 0.0
29/07:30am 24.0 25.4 21.9 88 1.4 SE 17 19 9 10 1015.9 1015.9 0.0
29/07:00am 22.8 25.9 21.4 92 0.9 SSW 7 17 4 9 1015.5 1015.5 0.0
29/06:30am 21.7 25.3 21.2 97 0.3 WNW 4 6 2 3 1015.2 1015.2 0.0
29/06:00am 22.3 26.8 21.6 96 0.5 CALM 0 0 0 0 1014.6 1014.6 0.0
29/05:30am 22.3 24.8 21.8 97 0.3 SE 11 15 6 8 1014.2 1014.2 0.0
29/05:00am 21.8 26.2 21.3 97 0.3 CALM 0 0 0 0 1014.0 1014.0 0.0
29/04:30am 22.2 26.3 21.5 96 0.5 WNW 2 7 1 4 1013.9 1013.9 0.0
29/04:00am 22.9 26.7 21.7 93 0.8 S 4 7 2 4 1013.6 1013.6 0.0
29/03:30am 22.3 25.8 21.8 97 0.3 W 6 7 3 4 1013.6 1013.6 0.0
29/03:00am 22.6 27.2 21.8 95 0.5 CALM 0 0 0 0 1013.7 1013.7 0.0
29/02:30am 23.5 27.0 22.1 92 0.9 S 7 13 4 7 1013.6 1013.6 0.0
29/02:00am 23.5 25.9 22.3 93 0.8 SSE 13 17 7 9 1013.8 1013.8 0.0
29/01:30am 23.4 26.5 22.2 93 0.8 SSE 9 17 5 9 1014.1 1014.1 0.0
29/01:00am 23.5 28.1 21.8 90 1.1 CALM 0 6 0 3 1014.4 1014.4 0.0
29/12:30am 24.2 26.9 22.1 88 1.4 SE 11 13 6 7 1014.4 1014.4 0.0
29/12:00am 24.5 26.4 22.0 86 1.7 SSE 15 22 8 12 1014.6 1014.6 0.0
 
Date/Time
EST
Temp
°C
App
Temp
°C
Dew
Point
Rel
Hum
%
Delta-T
°C
Wind Press
QNH
hPa
Press
MSL
hPa
Rain
since 9 am
mm
Dir
 
Spd
km/h
Gust
km/h
Spd
kts
Gust
kts
28/11:30pm 24.6 29.4 22.1 86 1.7 CALM 0 7 0 4 1014.9 1014.9 0.0
28/11:00pm 24.8 28.4 22.3 86 1.7 S 7 11 4 6 1014.9 1014.9 0.0
28/10:30pm 24.7 28.0 22.6 88 1.4 S 9 15 5 8 1015.2 1015.2 0.0
28/10:00pm 24.6 27.6 22.7 89 1.3 SSE 11 15 6 8 1015.3 1015.3 0.0
28/09:30pm 25.3 28.0 22.8 86 1.7 S 13 17 7 9 1015.2 1015.2 0.0
28/09:00pm 24.9 28.1 23.0 89 1.3 SSE 11 15 6 8 1015.1 1015.1 0.0
28/08:30pm 25.2 28.4 23.1 88 1.4 S 11 15 6 8 1014.8 1014.8 0.0
28/08:00pm 24.8 30.2 23.2 91 1.1 CALM 0 0 0 0 1014.6 1014.6 0.0
28/07:30pm 25.5 30.5 23.2 87 1.6 WSW 2 6 1 3 1014.3 1014.3 0.0
28/07:00pm 25.3 30.6 23.0 87 1.6 CALM 0 0 0 0 1014.0 1014.0 0.0
28/06:30pm 26.0 30.6 23.1 84 2.0 SW 4 9 2 5 1013.5 1013.5 0.0
28/06:00pm 26.5 30.3 23.4 83 2.1 W 9 13 5 7 1013.2 1013.2 0.0
28/05:30pm 27.4 31.9 23.6 80 2.6 SE 6 9 3 5 1013.0 1013.0 0.0
28/05:00pm 28.6 33.2 23.1 72 3.8 NE 4 9 2 5 1012.7 1012.7 0.0
28/04:30pm 27.8 30.3 23.8 79 2.8 N 17 24 9 13 1012.6 1012.6 0.0
28/04:00pm 28.1 30.9 23.7 77 3.0 NNE 15 19 8 10 1012.6 1012.6 0.0
28/03:30pm 28.5 31.9 24.1 77 3.0 NNE 13 19 7 10 1012.6 1012.6 0.0
28/03:00pm 28.7 32.4 24.5 78 2.9 NNE 13 22 7 12 1012.6 1012.6 0.0
28/02:30pm 28.4 32.0 24.4 79 2.8 NNE 13 19 7 10 1012.7 1012.7 0.0
28/02:00pm 28.4 32.0 24.4 79 2.8 N 13 17 7 9 1013.1 1013.1 0.0
28/01:30pm 28.2 31.7 25.4 85 2.0 NNE 17 20 9 11 1013.3 1013.3 0.0
28/01:00pm 28.2 32.2 25.0 83 2.2 NNE 13 19 7 10 1013.5 1013.5 0.0
28/12:30pm 28.1 31.1 24.7 82 2.4 N 17 20 9 11 1013.6 1013.6 0.0
28/12:00pm 28.7 32.3 24.3 77 3.1 NNE 13 17 7 9 1013.7 1013.7 0.0
28/11:30am 29.0 32.7 24.6 77 3.1 NNE 13 15 7 8 1014.1 1014.1 0.0
28/11:00am 28.9 32.8 24.2 76 3.3 NNE 11 15 6 8 1014.4 1014.4 0.0
28/10:30am 28.4 31.5 24.2 78 2.9 N 15 19 8 10 1014.8 1014.8 0.0
28/10:00am 29.0 32.3 22.5 68 4.4 NW 9 15 5 8 1015.0 1015.0 0.0
28/09:30am 28.5 33.5 22.5 70 4.1 CALM 0 0 0 0 1015.1 1015.1 0.0
28/09:00am 27.2 32.4 22.8 77 3.0 CALM 0 0 0 0 1014.9 1014.9 0.0
28/08:30am 26.4 31.6 22.9 81 2.4 CALM 0 0 0 0 1014.9 1014.9 0.0
28/08:00am 24.8 29.8 23.2 91 1.1 SE 2 9 1 5 1014.8 1014.8 0.0
28/07:30am 23.4 28.6 22.9 97 0.3 CALM 0 0 0 0 1014.5 1014.5 0.0
28/07:00am 22.1 26.7 21.8 98 0.2 CALM 0 0 0 0 1014.3 1014.3 0.0
28/06:30am 21.8 25.9 21.5 98 0.2 SW 2 6 1 3 1014.1 1014.1 0.0
28/06:00am 21.6 24.7 21.4 99 0.1 SSE 7 13 4 7 1013.9 1013.9 0.0
28/05:30am 21.7 25.4 21.4 98 0.2 SE 4 7 2 4 1013.6 1013.6 0.0
28/05:00am 21.9 25.6 21.4 97 0.3 SE 4 9 2 5 1013.5 1013.5 0.0
28/04:30am 22.4 26.0 22.1 98 0.2 ESE 6 7 3 4 1013.2 1013.2 0.0
28/04:00am 21.6 26.0 21.3 98 0.2 CALM 0 0 0 0 1012.8 1012.8 0.0
28/03:30am 22.0 26.6 21.7 98 0.2 CALM 0 0 0 0 1012.7 1012.7 0.0
28/03:00am 22.1 26.8 21.9 99 0.1 CALM 0 0 0 0 1012.7 1012.7 0.0
28/02:30am 22.1 26.7 21.8 98 0.2 CALM 0 0 0 0 1012.7 1012.7 0.0
28/02:00am 22.4 26.8 22.1 98 0.2 W 2 7 1 4 1013.0 1013.0 0.0
28/01:30am 22.4 27.2 22.1 98 0.2 CALM 0 0 0 0 1013.1 1013.1 0.0
28/01:00am 22.6 27.1 22.3 98 0.2 WSW 2 7 1 4 1013.3 1013.3 0.0
28/12:30am 22.5 26.8 22.0 97 0.3 W 2 6 1 3 1013.3 1013.3 0.0
28/12:00am 22.9 27.2 22.6 98 0.2 WNW 4 11 2 6 1013.3 1013.3 0.0
 
Date/Time
EST
Temp
°C
App
Temp
°C
Dew
Point
Rel
Hum
%
Delta-T
°C
Wind Press
QNH
hPa
Press
MSL
hPa
Rain
since 9 am
mm
Dir
 
Spd
km/h
Gust
km/h
Spd
kts
Gust
kts
27/11:30pm 22.9 27.8 22.4 97 0.3 CALM 0 0 0 0 1013.6 1013.6 0.0
27/11:00pm 23.2 27.2 22.7 97 0.3 W 6 7 3 4 1013.8 1013.8 0.0
27/10:30pm 23.2 27.0 22.7 97 0.3 W 7 9 4 5 1013.8 1013.8 0.0
27/10:00pm 23.5 28.8 23.0 97 0.3 CALM 0 0 0 0 1013.9 1013.9 0.0
27/09:30pm 23.9 29.3 23.2 96 0.5 CALM 0 0 0 0 1013.8 1013.8 0.0
27/09:00pm 24.1 29.6 23.4 96 0.5 CALM 0 0 0 0 1013.8 1013.8 0.0
27/08:30pm 23.9 28.0 22.9 94 0.7 W 6 7 3 4 1013.6 1013.6 0.0
27/08:00pm 24.4 29.4 23.2 93 0.8 W 2 6 1 3 1013.3 1013.3 0.0
27/07:30pm 25.1 30.2 23.3 90 1.2 WNW 2 9 1 5 1013.0 1013.0 0.0
27/07:00pm 25.2 29.9 23.3 89 1.3 W 4 7 2 4 1012.8 1012.8 0.0
27/06:30pm 25.0 29.6 23.2 90 1.2 W 4 7 2 4 1012.6 1012.6 0.0
27/06:00pm 25.3 29.5 23.2 88 1.4 WNW 6 9 3 5 1012.2 1012.2 0.0
27/05:30pm 26.0 30.0 23.1 84 2.0 NW 7 11 4 6 1012.0 1012.0 0.0
27/05:00pm 26.7 30.5 23.4 82 2.3 NNW 9 13 5 7 1012.0 1012.0 0.0
27/04:30pm 27.2 30.4 23.0 78 2.9 N 11 15 6 8 1011.9 1011.9 0.0
27/04:00pm 27.5 30.1 22.7 75 3.3 N 13 17 7 9 1011.8 1011.8 0.0
27/03:30pm 27.7 30.6 23.1 76 3.1 NNE 13 19 7 10 1011.7 1011.7 0.0
27/03:00pm 27.3 30.0 22.9 77 3.0 NE 13 19 7 10 1011.7 1011.7 0.0
27/02:30pm 28.2 30.8 22.7 72 3.7 NNE 13 17 7 9 1011.8 1011.8 0.0
27/02:00pm 28.5 31.3 23.6 75 3.4 NNE 15 20 8 11 1012.1 1012.1 0.0
27/01:30pm 28.4 30.8 22.9 72 3.7 NNE 15 24 8 13 1012.4 1012.4 0.0
27/01:00pm 28.4 31.0 22.6 71 3.9 NNE 13 17 7 9 1012.9 1012.9 0.0
27/12:30pm 28.0 30.4 22.2 70 3.9 N 13 17 7 9 1013.3 1013.3 0.0
27/12:00pm 28.0 30.7 22.9 74 3.5 NNE 13 19 7 10 1013.9 1013.9 0.0
27/11:30am 27.6 29.7 22.5 74 3.4 NNE 15 20 8 11 1014.3 1014.3 0.0
27/11:00am 27.5 30.5 23.3 78 2.9 NNE 13 20 7 11 1014.6 1014.6 0.0
27/10:30am 27.5 29.9 22.2 73 3.6 NNE 13 17 7 9 1015.1 1015.1 0.0
27/10:00am 27.9 31.0 21.4 67 4.3 WNW 7 11 4 6 1015.3 1015.3 0.0
27/09:30am 26.9 29.0 21.0 70 3.9 W 11 13 6 7 1015.6 1015.6 0.0
27/09:00am 26.2 29.6 21.6 76 3.1 SW 6 9 3 5 1015.6 1015.6 0.0
27/08:30am 24.7 27.7 21.2 81 2.3 SE 7 11 4 6 1015.4 1015.4 0.0
27/08:00am 24.4 27.4 21.9 86 1.7 SW 9 13 5 7 1015.2 1015.2 0.0
27/07:30am 22.5 26.1 21.3 93 0.8 WNW 4 9 2 5 1015.1 1015.1 0.0
27/07:00am 20.8 24.4 20.6 99 0.1 W 2 7 1 4 1015.0 1015.0 0.0
27/06:30am 20.4 24.2 20.2 99 0.1 CALM 0 0 0 0 1014.6 1014.6 0.0
27/06:00am 20.5 24.4 20.3 99 0.1 CALM 0 0 0 0 1014.2 1014.2 0.0
27/05:30am 20.4 24.2 20.1 98 0.2 CALM 0 0 0 0 1014.0 1014.0 0.0
27/05:00am 20.5 23.2 20.2 98 0.2 NW 6 7 3 4 1013.8 1013.8 0.0
27/04:30am 20.6 24.5 20.4 99 0.1 CALM 0 0 0 0 1013.9 1013.9 0.0
27/04:00am 20.7 24.6 20.4 98 0.2 CALM 0 0 0 0 1013.8 1013.8 0.0
27/03:30am 21.0 25.1 20.7 98 0.2 CALM 0 0 0 0 1013.8 1013.8 0.0
27/03:00am 20.8 24.8 20.5 98 0.2 CALM 0 0 0 0 1013.9 1013.9 0.0
27/02:30am 21.0 25.0 20.5 97 0.3 CALM 0 0 0 0 1014.0 1014.0 0.0
27/02:00am 21.0 23.7 20.3 96 0.4 WSW 6 9 3 5 1014.0 1014.0 0.0
27/01:30am 21.2 25.0 20.9 98 0.2 W 2 9 1 5 1014.1 1014.1 0.0
27/01:00am 21.1 25.1 20.6 97 0.3 CALM 0 0 0 0 1014.2 1014.2 0.0
27/12:30am 21.4 24.1 20.7 96 0.5 WNW 7 9 4 5 1014.2 1014.2 0.0
27/12:00am 21.8 25.3 21.1 96 0.5 SSE 4 7 2 4 1014.4 1014.4 0.0
 
Date/Time
EST
Temp
°C
App
Temp
°C
Dew
Point
Rel
Hum
%
Delta-T
°C
Wind Press
QNH
hPa
Press
MSL
hPa
Rain
since 9 am
mm
Dir
 
Spd
km/h
Gust
km/h
Spd
kts
Gust
kts
26/11:30pm 21.9 25.1 21.2 96 0.5 S 6 9 3 5 1014.5 1014.5 0.0
26/11:00pm 22.0 24.6 21.2 95 0.5 W 9 9 5 5 1014.5 1014.5 0.0
26/10:30pm 21.8 26.1 21.1 96 0.5 CALM 0 0 0 0 1014.5 1014.5 0.0
26/10:00pm 22.0 26.3 21.2 95 0.5 CALM 0 0 0 0 1014.6 1014.6 0.0
26/09:30pm 22.2 25.5 21.4 95 0.5 W 6 9 3 5 1014.7 1014.7 0.0
26/09:00pm 22.5 26.9 21.3 93 0.8 CALM 0 0 0 0 1014.7 1014.7 0.0
26/08:30pm 23.2 26.5 21.8 92 0.9 W 7 9 4 5 1014.7 1014.7 0.0
26/08:00pm 23.7 27.0 21.8 89 1.3 WNW 7 9 4 5 1014.5 1014.5 0.0
26/07:30pm 24.1 27.4 21.8 87 1.5 W 7 9 4 5 1014.2 1014.2 0.0
26/07:00pm 24.3 27.2 21.8 86 1.7 W 9 13 5 7 1013.8 1013.8 0.0
26/06:30pm 24.5 28.1 22.0 86 1.7 NNW 6 7 3 4 1013.6 1013.6 0.0
26/06:00pm 25.1 27.9 21.6 81 2.3 NE 9 13 5 7 1013.2 1013.2 0.0

Other Formats:

Comma delimited format used in spreadsheet applications
http://www.bom.gov.au/fwo/IDQ60801/IDQ60801.94287.axf

JavaScript Object Notation format (JSON) in row-major order
http://www.bom.gov.au/fwo/IDQ60801/IDQ60801.94287.json